Time;durP1;ratioP1;P1;durP2;ratioP2;P2;SDS_P1;SDS_P2;PMS_P1;PMS_P2;Temp;Humidity;BMP_temperature;BMP_pressure;BME280_temperature;BME280_humidity;BME280_pressure;Samples;Min_cycle;Max_cycle;Signal;HPM_P1;HPM_P2
2023/07/24 00:02:25;;;;;;;7.65;7.15;;;17.40;99.90;;;;;;5037985;28;20037;-69
2023/07/24 00:04:53;;;;;;;7.63;7.18;;;17.40;99.90;;;;;;5040093;28;20062;-69
2023/07/24 00:07:20;;;;;;;8.45;7.80;;;17.40;99.90;;;;;;5033610;28;20044;-70
2023/07/24 00:09:47;;;;;;;7.55;7.05;;;17.40;99.90;;;;;;5038811;28;20048;-69
2023/07/24 00:12:14;;;;;;;7.70;7.22;;;17.30;99.90;;;;;;5025297;28;20088;-69
2023/07/24 00:14:41;;;;;;;7.63;7.13;;;17.30;99.90;;;;;;5039635;28;20687;-70
2023/07/24 00:17:07;;;;;;;7.45;7.00;;;17.30;99.90;;;;;;5031079;28;20032;-69
2023/07/24 00:19:34;;;;;;;7.45;6.95;;;17.30;99.90;;;;;;5040795;28;20037;-70
2023/07/24 00:22:01;;;;;;;8.00;7.50;;;17.20;99.90;;;;;;5045228;28;20052;-68
2023/07/24 00:24:30;;;;;;;8.00;7.50;;;17.20;99.90;;;;;;5039026;28;20041;-69
2023/07/24 00:26:56;;;;;;;7.38;6.97;;;17.20;99.90;;;;;;5031212;28;20052;-70
2023/07/24 00:29:23;;;;;;;8.15;7.65;;;17.10;99.90;;;;;;5027923;28;20122;-70
2023/07/24 00:31:50;;;;;;;7.65;7.05;;;17.20;99.90;;;;;;5043345;28;20098;-69
2023/07/24 00:34:17;;;;;;;7.55;7.00;;;17.10;99.90;;;;;;5018647;28;20107;-70
2023/07/24 00:36:43;;;;;;;7.63;7.10;;;17.10;99.90;;;;;;5037347;28;20110;-68
2023/07/24 00:39:10;;;;;;;9.00;7.10;;;17.10;99.90;;;;;;5030029;28;20060;-70
2023/07/24 00:41:37;;;;;;;8.48;7.80;;;17.10;99.90;;;;;;5022361;28;20114;-70
2023/07/24 00:44:04;;;;;;;8.70;8.10;;;17.10;99.90;;;;;;5035257;28;20688;-70
2023/07/24 00:46:32;;;;;;;8.38;7.68;;;17.10;99.90;;;;;;5047258;28;20484;-69
2023/07/24 00:49:01;;;;;;;8.65;7.95;;;17.20;99.90;;;;;;5037411;28;20049;-69
2023/07/24 00:51:32;;;;;;;8.98;8.32;;;17.20;99.90;;;;;;5032406;28;20061;-70
2023/07/24 00:54:04;;;;;;;9.13;8.43;;;17.20;99.90;;;;;;5032484;28;20059;-71
2023/07/24 00:56:32;;;;;;;9.68;8.98;;;17.20;99.90;;;;;;5035581;28;20057;-69
2023/07/24 00:59:00;;;;;;;9.20;8.60;;;17.30;99.90;;;;;;5032786;28;20083;-69
2023/07/24 01:01:28;;;;;;;9.40;8.60;;;17.30;99.90;;;;;;5034424;28;20049;-69
2023/07/24 01:03:57;;;;;;;9.18;8.50;;;17.20;99.90;;;;;;5041519;28;20082;-69
2023/07/24 01:06:24;;;;;;;9.65;8.95;;;17.20;99.90;;;;;;5031492;28;20065;-68
2023/07/24 01:08:51;;;;;;;9.30;8.50;;;17.20;99.90;;;;;;5040642;28;20052;-69
2023/07/24 01:11:20;;;;;;;9.20;8.60;;;17.20;99.90;;;;;;5036185;28;20113;-68
2023/07/24 01:13:57;;;;;;;9.80;8.90;;;17.20;99.90;;;;;;5047132;28;20473;-69
2023/07/24 01:16:29;;;;;;;10.05;9.25;;;17.30;99.90;;;;;;5030477;28;20052;-69
2023/07/24 01:18:58;;;;;;;10.00;9.10;;;17.20;99.90;;;;;;5052694;28;20051;-68
2023/07/24 01:21:44;;;;;;;9.50;8.68;;;17.20;99.90;;;;;;5053079;28;20474;-70
2023/07/24 01:24:33;;;;;;;10.00;9.13;;;17.20;99.90;;;;;;5024092;28;20722;-71
2023/07/24 01:27:01;;;;;;;9.88;8.95;;;17.20;99.90;;;;;;5036362;28;20579;-69
2023/07/24 01:29:28;;;;;;;9.25;8.45;;;17.20;99.90;;;;;;5048331;28;20044;-69
2023/07/24 01:31:55;;;;;;;10.82;9.73;;;17.20;99.90;;;;;;5039309;28;20107;-70
2023/07/24 01:34:22;;;;;;;9.85;8.88;;;17.20;99.90;;;;;;5044425;28;20041;-69
2023/07/24 01:36:50;;;;;;;9.65;8.85;;;17.20;99.90;;;;;;5054845;28;20037;-70
2023/07/24 01:39:20;;;;;;;9.68;8.85;;;17.20;99.90;;;;;;5044296;28;20048;-69
2023/07/24 01:41:47;;;;;;;9.10;8.40;;;17.20;99.90;;;;;;5055018;28;20123;-68
2023/07/24 01:44:14;;;;;;;9.77;8.52;;;17.10;99.90;;;;;;5039792;28;20052;-71
2023/07/24 01:46:40;;;;;;;10.13;9.15;;;17.10;99.90;;;;;;5037649;28;20048;-72
2023/07/24 01:49:07;;;;;;;9.65;8.85;;;17.10;99.90;;;;;;5039871;28;20718;-70
2023/07/24 01:51:34;;;;;;;9.30;8.40;;;17.00;99.90;;;;;;5040729;28;20086;-71
2023/07/24 01:54:01;;;;;;;8.95;8.13;;;17.00;99.90;;;;;;5038197;28;20744;-70
2023/07/24 01:56:28;;;;;;;9.70;8.43;;;17.00;99.90;;;;;;5033638;28;20102;-70
2023/07/24 01:58:55;;;;;;;10.05;8.98;;;16.90;99.90;;;;;;5046246;28;20395;-70
2023/07/24 02:01:22;;;;;;;9.75;8.15;;;16.90;99.90;;;;;;5032670;28;20618;-72
2023/07/24 02:03:48;;;;;;;8.27;7.57;;;17.00;99.90;;;;;;5043463;28;20579;-70
2023/07/24 02:06:15;;;;;;;9.02;8.23;;;17.00;99.90;;;;;;5036460;28;20041;-69
2023/07/24 02:08:48;;;;;;;8.57;7.85;;;16.90;99.90;;;;;;5042760;28;20526;-71
2023/07/24 02:11:15;;;;;;;9.05;8.15;;;16.90;99.90;;;;;;5036330;28;20033;-70
2023/07/24 02:13:46;;;;;;;8.48;7.68;;;17.00;99.90;;;;;;5026645;28;20045;-71
2023/07/24 02:16:14;;;;;;;9.57;8.68;;;17.00;99.90;;;;;;5047002;28;20041;-69
2023/07/24 02:18:42;;;;;;;9.05;8.35;;;17.00;99.90;;;;;;5062842;28;20055;-70
2023/07/24 02:21:09;;;;;;;9.05;8.23;;;17.00;99.90;;;;;;5041303;28;20098;-70
2023/07/24 02:23:36;;;;;;;8.45;7.75;;;16.90;99.90;;;;;;5051220;28;20045;-70
2023/07/24 02:26:04;;;;;;;11.10;9.00;;;16.90;99.90;;;;;;5035709;28;20046;-70
2023/07/24 02:28:33;;;;;;;10.55;8.88;;;16.90;99.90;;;;;;5058483;28;20045;-68
2023/07/24 02:31:00;;;;;;;8.68;7.80;;;16.90;99.90;;;;;;5026114;28;20443;-68
2023/07/24 02:33:28;;;;;;;8.88;8.15;;;16.90;99.90;;;;;;5036874;28;20104;-69
2023/07/24 02:35:55;;;;;;;9.65;8.68;;;17.00;99.90;;;;;;5039619;28;20737;-69
2023/07/24 02:38:22;;;;;;;9.15;8.45;;;16.90;99.90;;;;;;5032859;28;20097;-70
2023/07/24 02:40:49;;;;;;;9.63;8.85;;;17.00;99.90;;;;;;5059282;28;20505;-70
2023/07/24 02:43:16;;;;;;;9.18;8.45;;;16.90;99.90;;;;;;5056665;28;20103;-70
2023/07/24 02:45:42;;;;;;;9.35;8.65;;;16.90;99.90;;;;;;5032283;28;20042;-70
2023/07/24 02:48:09;;;;;;;9.23;8.52;;;17.00;99.90;;;;;;5042003;28;20045;-69
2023/07/24 02:50:36;;;;;;;8.80;8.20;;;17.00;99.90;;;;;;5047591;28;20044;-70
2023/07/24 02:53:04;;;;;;;9.00;8.30;;;17.00;99.90;;;;;;5044068;28;20044;-71
2023/07/24 02:55:31;;;;;;;9.98;9.00;;;17.00;99.90;;;;;;5046371;28;20107;-71
2023/07/24 02:57:58;;;;;;;9.80;9.05;;;17.00;99.90;;;;;;5044742;28;20045;-70
2023/07/24 03:00:24;;;;;;;9.38;8.50;;;17.00;99.90;;;;;;5041563;28;20112;-71
2023/07/24 03:02:52;;;;;;;9.52;8.60;;;17.00;99.90;;;;;;5068412;28;20063;-72
2023/07/24 03:05:19;;;;;;;10.13;8.40;;;17.00;99.90;;;;;;5043279;28;20068;-70
2023/07/24 03:07:46;;;;;;;9.55;8.63;;;17.00;99.90;;;;;;5045563;28;20037;-70
2023/07/24 03:10:13;;;;;;;10.90;8.63;;;16.90;99.90;;;;;;5034436;28;20053;-70
2023/07/24 03:12:39;;;;;;;9.80;9.00;;;16.90;99.90;;;;;;5051669;28;20060;-69
2023/07/24 03:15:07;;;;;;;9.10;8.30;;;16.90;99.90;;;;;;5040532;28;20057;-67
2023/07/24 03:17:34;;;;;;;9.10;8.25;;;16.90;99.90;;;;;;5050953;28;20038;-69
2023/07/24 03:20:09;;;;;;;11.88;7.93;;;16.90;99.90;;;;;;5041443;28;20055;-71
2023/07/24 03:22:35;;;;;;;8.48;7.65;;;16.90;99.90;;;;;;5027567;28;20049;-74
2023/07/24 03:25:02;;;;;;;12.60;8.48;;;16.90;99.90;;;;;;5040986;28;20049;-71
2023/07/24 03:27:29;;;;;;;9.75;7.90;;;16.80;99.90;;;;;;5037111;28;20045;-72
2023/07/24 03:29:56;;;;;;;11.07;8.80;;;16.90;99.90;;;;;;5041551;28;20726;-70
2023/07/24 03:32:23;;;;;;;9.40;8.43;;;16.80;99.90;;;;;;5035765;28;20472;-73
2023/07/24 03:34:50;;;;;;;10.63;8.57;;;16.80;99.90;;;;;;5036742;28;20466;-72
2023/07/24 03:37:17;;;;;;;8.80;8.10;;;16.80;99.90;;;;;;5023731;28;20623;-71
2023/07/24 03:39:44;;;;;;;9.00;8.25;;;16.80;99.90;;;;;;5036568;28;20052;-71
2023/07/24 03:42:13;;;;;;;9.55;8.70;;;16.70;99.90;;;;;;5027941;28;20110;-70
2023/07/24 03:44:40;;;;;;;8.77;7.95;;;16.70;99.90;;;;;;5036515;28;20099;-68
2023/07/24 03:47:07;;;;;;;14.43;8.82;;;16.70;99.90;;;;;;5044441;28;20634;-71
2023/07/24 03:49:34;;;;;;;8.90;7.95;;;16.70;99.90;;;;;;5036505;28;20099;-69
2023/07/24 03:52:01;;;;;;;8.88;8.20;;;16.70;99.90;;;;;;5032386;28;20721;-70
2023/07/24 03:54:28;;;;;;;10.07;8.55;;;16.70;99.90;;;;;;5030317;28;20041;-70
2023/07/24 03:56:54;;;;;;;10.00;9.05;;;16.80;99.90;;;;;;5031934;28;20408;-69
2023/07/24 03:59:21;;;;;;;10.80;9.45;;;16.80;99.90;;;;;;5028076;28;20045;-70
2023/07/24 04:01:48;;;;;;;11.50;9.38;;;16.80;99.90;;;;;;5042575;28;20200;-71
2023/07/24 04:04:14;;;;;;;14.23;10.80;;;16.90;99.90;;;;;;5033307;28;20090;-70
2023/07/24 04:06:41;;;;;;;14.02;10.85;;;17.00;99.90;;;;;;5028238;28;20453;-70
2023/07/24 04:09:08;;;;;;;12.85;11.55;;;17.00;99.90;;;;;;5039491;28;20052;-70
2023/07/24 04:11:37;;;;;;;13.05;11.73;;;17.00;99.90;;;;;;5031047;28;20057;-69
2023/07/24 04:14:04;;;;;;;13.95;12.52;;;17.00;99.90;;;;;;5035901;28;20037;-70
2023/07/24 04:16:31;;;;;;;12.30;11.45;;;17.10;99.90;;;;;;5032709;28;20053;-70
2023/07/24 04:18:58;;;;;;;12.93;11.80;;;17.10;99.90;;;;;;5030541;28;20040;-71
2023/07/24 04:21:25;;;;;;;14.05;12.65;;;17.20;99.90;;;;;;5045380;28;20048;-70
2023/07/24 04:23:52;;;;;;;16.52;12.52;;;17.30;99.90;;;;;;5041298;28;20147;-70
2023/07/24 04:26:18;;;;;;;13.30;12.20;;;17.30;99.90;;;;;;5025264;28;20041;-70
2023/07/24 04:28:45;;;;;;;13.30;11.80;;;17.30;99.90;;;;;;5040982;28;20040;-70
2023/07/24 04:31:12;;;;;;;13.07;11.50;;;17.40;99.90;;;;;;5032978;28;20093;-70
2023/07/24 04:33:39;;;;;;;12.90;11.93;;;17.40;99.90;;;;;;5034086;28;20896;-71
2023/07/24 04:36:06;;;;;;;12.23;11.18;;;17.30;99.90;;;;;;5038126;28;20041;-71
2023/07/24 04:38:32;;;;;;;12.63;11.48;;;17.30;99.90;;;;;;5029095;28;20275;-72
2023/07/24 04:41:02;;;;;;;12.18;10.70;;;17.20;99.90;;;;;;5035140;28;20044;-71
2023/07/24 04:43:30;;;;;;;11.55;10.38;;;17.20;99.90;;;;;;5027377;28;20056;-70
2023/07/24 04:45:56;;;;;;;12.02;10.85;;;17.10;99.90;;;;;;5038534;28;20502;-70
2023/07/24 04:48:23;;;;;;;12.95;11.32;;;17.10;99.90;;;;;;5028819;28;20044;-70
2023/07/24 04:50:56;;;;;;;11.23;10.32;;;17.20;99.90;;;;;;5036740;28;20503;-70
2023/07/24 04:53:23;;;;;;;12.30;11.20;;;17.10;99.90;;;;;;5030519;28;20037;-68
2023/07/24 04:55:50;;;;;;;11.95;10.38;;;17.10;99.90;;;;;;5031575;28;20065;-69
2023/07/24 04:58:17;;;;;;;13.60;11.13;;;17.10;99.90;;;;;;5024986;28;20045;-71
2023/07/24 05:00:44;;;;;;;11.55;9.65;;;17.10;99.90;;;;;;5032057;28;20129;-70
2023/07/24 05:03:11;;;;;;;12.55;9.68;;;17.10;99.90;;;;;;5038818;28;20064;-71
2023/07/24 05:05:38;;;;;;;11.00;10.05;;;17.10;99.90;;;;;;5052769;28;20158;-71
2023/07/24 05:08:09;;;;;;;10.88;9.98;;;17.20;99.90;;;;;;5037105;28;20048;-69
2023/07/24 05:10:36;;;;;;;11.43;10.43;;;17.20;99.90;;;;;;5028465;28;20076;-70
2023/07/24 05:13:03;;;;;;;11.48;10.38;;;17.20;99.90;;;;;;5041535;28;20058;-71
2023/07/24 05:15:30;;;;;;;11.27;10.38;;;17.30;99.90;;;;;;5026616;28;20132;-70
2023/07/24 05:17:56;;;;;;;11.80;10.77;;;17.20;99.90;;;;;;5040264;28;20036;-70
2023/07/24 05:20:23;;;;;;;10.60;9.60;;;17.20;99.90;;;;;;5036150;28;20052;-69
2023/07/24 05:22:50;;;;;;;10.85;10.05;;;17.20;99.90;;;;;;5035311;28;20040;-70
2023/07/24 05:25:17;;;;;;;11.52;10.60;;;17.20;99.90;;;;;;5035092;28;20091;-68
2023/07/24 05:27:43;;;;;;;11.50;10.38;;;17.20;99.90;;;;;;5035826;28;20469;-69
2023/07/24 05:30:12;;;;;;;11.95;10.93;;;17.30;99.90;;;;;;5027059;28;20047;-69
2023/07/24 05:32:39;;;;;;;12.25;11.15;;;17.40;99.90;;;;;;5028588;28;20102;-69
2023/07/24 05:35:06;;;;;;;11.60;10.57;;;17.50;99.90;;;;;;5036334;28;20514;-70
2023/07/24 05:37:32;;;;;;;12.20;11.13;;;17.50;99.90;;;;;;5027766;28;20049;-70
2023/07/24 05:39:59;;;;;;;11.68;10.75;;;17.50;99.90;;;;;;5037717;28;20419;-70
2023/07/24 05:42:26;;;;;;;11.65;10.65;;;17.50;99.90;;;;;;5036960;28;20041;-70
2023/07/24 05:44:53;;;;;;;12.25;11.20;;;17.40;99.90;;;;;;5034326;28;20090;-69
2023/07/24 05:47:19;;;;;;;12.32;11.32;;;17.40;99.90;;;;;;5026685;28;20045;-69
2023/07/24 05:49:46;;;;;;;11.43;10.50;;;17.40;99.90;;;;;;5033485;28;20037;-71
2023/07/24 05:52:13;;;;;;;12.23;11.20;;;17.40;99.90;;;;;;5032658;28;20422;-70
2023/07/24 05:54:40;;;;;;;12.00;11.10;;;17.40;99.90;;;;;;5030395;28;20049;-71
2023/07/24 05:57:06;;;;;;;13.05;11.93;;;17.40;99.90;;;;;;5036107;28;20048;-69
2023/07/24 05:59:33;;;;;;;11.93;10.93;;;17.40;99.90;;;;;;5030511;28;20133;-71
2023/07/24 06:02:00;;;;;;;11.32;10.52;;;17.30;99.90;;;;;;5033815;28;20519;-70
2023/07/24 06:04:27;;;;;;;12.25;11.30;;;17.30;99.90;;;;;;5033449;28;20163;-69
2023/07/24 06:06:53;;;;;;;11.77;10.77;;;17.40;99.90;;;;;;5032463;28;20041;-69
2023/07/24 06:09:20;;;;;;;14.40;13.02;;;17.40;99.90;;;;;;5032786;28;20045;-71
2023/07/24 06:11:48;;;;;;;11.40;10.60;;;17.30;99.90;;;;;;5039911;28;20461;-70
2023/07/24 06:14:15;;;;;;;12.02;11.23;;;17.40;99.90;;;;;;5038947;28;20110;-70
2023/07/24 06:16:41;;;;;;;12.70;11.43;;;17.40;99.90;;;;;;5024432;28;20123;-70
2023/07/24 06:19:08;;;;;;;13.00;12.00;;;17.40;99.90;;;;;;5037863;28;20136;-70
2023/07/24 06:21:35;;;;;;;12.48;11.48;;;17.40;99.90;;;;;;5026369;28;20608;-68
2023/07/24 06:24:02;;;;;;;13.02;12.00;;;17.50;99.90;;;;;;5035582;28;20048;-70
2023/07/24 06:26:29;;;;;;;12.88;11.75;;;17.50;99.90;;;;;;5027650;28;20069;-69
2023/07/24 06:28:57;;;;;;;13.85;12.55;;;17.60;99.90;;;;;;5033886;28;20411;-71
2023/07/24 06:31:23;;;;;;;14.05;13.15;;;17.70;99.90;;;;;;5036329;28;20044;-70
2023/07/24 06:33:50;;;;;;;13.60;12.60;;;17.80;99.90;;;;;;5045343;28;20051;-71
2023/07/24 06:36:17;;;;;;;14.32;13.25;;;18.00;99.90;;;;;;5032649;28;20047;-72
2023/07/24 06:38:44;;;;;;;16.50;15.35;;;18.30;99.90;;;;;;5034405;28;20045;-70
2023/07/24 06:41:10;;;;;;;16.20;15.15;;;18.50;99.90;;;;;;5028871;28;20045;-70
2023/07/24 06:43:37;;;;;;;15.95;14.77;;;18.60;99.90;;;;;;5033434;28;20052;-73
2023/07/24 06:46:04;;;;;;;18.25;16.95;;;18.90;99.90;;;;;;5024614;28;20037;-73
2023/07/24 06:48:32;;;;;;;19.08;17.73;;;19.20;99.90;;;;;;5032114;28;20693;-73
2023/07/24 06:50:58;;;;;;;19.50;18.17;;;19.30;99.90;;;;;;5036648;28;20119;-73
2023/07/24 06:53:25;;;;;;;18.95;17.48;;;19.40;99.90;;;;;;5048913;28;20564;-74
2023/07/24 06:55:52;;;;;;;20.95;19.13;;;19.50;99.90;;;;;;5031251;28;20136;-74
2023/07/24 06:58:19;;;;;;;19.70;17.95;;;19.80;99.90;;;;;;5038826;28;20051;-75
2023/07/24 07:00:46;;;;;;;20.33;18.25;;;19.90;99.90;;;;;;5031634;28;20095;-74
2023/07/24 07:03:12;;;;;;;21.15;19.52;;;20.00;99.90;;;;;;5031209;28;20137;-74
2023/07/24 07:05:39;;;;;;;21.60;20.10;;;20.00;99.90;;;;;;5029980;28;20041;-74
2023/07/24 07:08:06;;;;;;;22.38;20.73;;;20.00;99.90;;;;;;5029768;28;20107;-74
2023/07/24 07:10:33;;;;;;;20.33;19.02;;;19.70;99.90;;;;;;5029495;28;20048;-74
2023/07/24 07:12:59;;;;;;;21.10;19.45;;;19.60;99.90;;;;;;5040552;28;20037;-73
2023/07/24 07:15:26;;;;;;;17.75;16.17;;;19.20;99.90;;;;;;5017311;28;20041;-73
2023/07/24 07:17:53;;;;;;;15.40;13.18;;;18.50;99.90;;;;;;5048321;28;20053;-73
2023/07/24 07:20:20;;;;;;;13.30;10.20;;;17.90;99.90;;;;;;5033522;28;20064;-72
2023/07/24 07:22:46;;;;;;;13.93;9.80;;;17.60;99.90;;;;;;5032695;28;20045;-74
2023/07/24 07:25:13;;;;;;;8.88;7.93;;;17.40;99.90;;;;;;5031837;28;20028;-73
2023/07/24 07:27:40;;;;;;;8.52;7.72;;;17.40;99.90;;;;;;5032210;28;20049;-73
2023/07/24 07:30:07;;;;;;;8.45;7.30;;;17.30;99.90;;;;;;5032321;28;20526;-73
2023/07/24 07:32:34;;;;;;;9.77;7.22;;;17.20;99.90;;;;;;5028358;28;20108;-73
2023/07/24 07:35:00;;;;;;;8.32;7.15;;;17.10;99.90;;;;;;5036156;28;20048;-73
2023/07/24 07:37:27;;;;;;;7.97;7.18;;;17.10;99.90;;;;;;5031553;28;20048;-73
2023/07/24 07:39:54;;;;;;;7.47;6.88;;;17.10;99.90;;;;;;5040790;28;20068;-74
2023/07/24 07:42:20;;;;;;;10.48;6.35;;;17.10;99.90;;;;;;5038492;28;20045;-73
2023/07/24 07:44:47;;;;;;;7.93;6.78;;;17.10;99.90;;;;;;5029140;28;20049;-73
2023/07/24 07:47:14;;;;;;;8.48;6.55;;;17.10;99.90;;;;;;5030996;28;20057;-73
2023/07/24 07:49:41;;;;;;;8.88;6.50;;;17.00;99.90;;;;;;5033240;28;20063;-73
2023/07/24 07:52:08;;;;;;;6.95;5.68;;;17.00;99.90;;;;;;5039846;28;20128;-73
2023/07/24 07:54:35;;;;;;;10.32;6.50;;;17.10;99.90;;;;;;5026305;28;20061;-73
2023/07/24 07:57:04;;;;;;;6.15;4.95;;;17.30;99.90;;;;;;5034797;28;20047;-74
2023/07/24 07:59:30;;;;;;;8.15;6.07;;;17.70;99.90;;;;;;5031639;28;20646;-72
2023/07/24 08:01:57;;;;;;;8.13;7.53;;;17.80;99.90;;;;;;5030557;28;20044;-73
2023/07/24 08:04:24;;;;;;;7.13;6.63;;;17.90;99.90;;;;;;5052450;28;20527;-73
2023/07/24 08:06:51;;;;;;;9.52;7.85;;;18.00;99.90;;;;;;5029010;28;20575;-73
2023/07/24 08:09:17;;;;;;;10.15;9.45;;;18.20;99.90;;;;;;5032081;28;20450;-73
2023/07/24 08:11:44;;;;;;;11.52;10.82;;;18.40;99.90;;;;;;5017699;28;20238;-73
2023/07/24 08:14:11;;;;;;;9.77;9.18;;;18.40;99.90;;;;;;5030088;28;20049;-73
2023/07/24 08:16:37;;;;;;;12.30;11.45;;;18.80;99.90;;;;;;5022792;28;20033;-74
2023/07/24 08:19:04;;;;;;;12.70;11.90;;;18.90;99.90;;;;;;5042935;28;20523;-74
2023/07/24 08:21:31;;;;;;;14.70;13.80;;;19.00;99.90;;;;;;5025353;28;20044;-73
2023/07/24 08:23:59;;;;;;;14.63;13.50;;;19.10;99.90;;;;;;5033676;28;20060;-72
2023/07/24 08:26:26;;;;;;;15.30;13.98;;;19.10;99.90;;;;;;5034264;28;20049;-73
2023/07/24 08:28:54;;;;;;;16.85;15.38;;;19.30;99.90;;;;;;5027709;28;20045;-73
2023/07/24 08:31:21;;;;;;;17.15;15.88;;;19.40;99.90;;;;;;5029939;28;20052;-73
2023/07/24 08:33:48;;;;;;;17.60;16.35;;;19.80;99.90;;;;;;5029321;28;20047;-73
2023/07/24 08:36:15;;;;;;;19.90;18.50;;;20.10;99.90;;;;;;5028266;28;20136;-75
2023/07/24 08:38:42;;;;;;;21.25;19.65;;;20.10;99.90;;;;;;5027701;28;20126;-75
2023/07/24 08:41:14;;;;;;;22.08;20.48;;;20.10;99.90;;;;;;5046394;28;20590;-74
2023/07/24 08:43:43;;;;;;;22.65;20.80;;;20.20;99.90;;;;;;5026315;28;20049;-74
2023/07/24 08:46:10;;;;;;;23.95;22.15;;;20.40;99.90;;;;;;5029353;28;20048;-73
2023/07/24 08:48:41;;;;;;;23.95;22.25;;;20.60;99.90;;;;;;5035739;28;20037;-75
2023/07/24 08:51:10;;;;;;;24.17;22.48;;;20.60;99.90;;;;;;5037294;28;20041;-74
2023/07/24 08:53:41;;;;;;;24.50;22.65;;;20.70;99.90;;;;;;5033629;28;20044;-74
2023/07/24 08:56:10;;;;;;;24.63;22.90;;;20.80;99.90;;;;;;5037217;28;20491;-74
2023/07/24 08:58:36;;;;;;;24.20;22.70;;;20.80;99.90;;;;;;5032641;28;20531;-74
2023/07/24 09:01:04;;;;;;;25.45;23.65;;;20.70;99.90;;;;;;5027699;28;20037;-75
2023/07/24 09:03:32;;;;;;;24.88;23.08;;;20.80;99.90;;;;;;5050699;28;21008;-74
2023/07/24 09:06:09;;;;;;;24.52;22.65;;;21.10;99.90;;;;;;5013758;28;20124;-74
2023/07/24 09:08:40;;;;;;;25.70;24.00;;;21.30;99.90;;;;;;5036660;28;20905;-74
2023/07/24 09:11:09;;;;;;;26.45;24.75;;;21.50;99.90;;;;;;5035538;28;20057;-74
2023/07/24 09:13:38;;;;;;;27.45;25.45;;;21.70;99.90;;;;;;5028930;28;20868;-73
2023/07/24 09:16:05;;;;;;;27.90;26.10;;;22.00;99.90;;;;;;5035129;28;20117;-75
2023/07/24 09:18:43;;;;;;;28.25;26.42;;;22.40;99.90;;;;;;5034216;28;20756;-74
2023/07/24 09:21:13;;;;;;;26.30;24.50;;;22.50;99.90;;;;;;5032070;28;20518;-74
2023/07/24 09:23:43;;;;;;;25.23;23.63;;;22.20;99.90;;;;;;5036588;28;20045;-75
2023/07/24 09:26:10;;;;;;;25.63;23.80;;;22.10;99.90;;;;;;5030170;28;20114;-74
2023/07/24 09:28:37;;;;;;;26.88;24.95;;;21.80;99.90;;;;;;5032977;28;20036;-73
2023/07/24 09:31:04;;;;;;;25.85;24.15;;;21.70;99.90;;;;;;5042825;28;20059;-74
2023/07/24 09:33:40;;;;;;;28.83;26.75;;;21.60;99.90;;;;;;5037499;28;20083;-75
2023/07/24 09:36:08;;;;;;;27.05;25.17;;;21.60;99.90;;;;;;5041476;28;20049;-73
2023/07/24 09:38:36;;;;;;;25.23;23.52;;;21.80;99.90;;;;;;5049160;28;20086;-73
2023/07/24 09:41:05;;;;;;;24.95;23.15;;;21.80;99.90;;;;;;5046860;28;20056;-74
2023/07/24 09:43:32;;;;;;;26.92;24.90;;;21.70;99.90;;;;;;5052682;28;20110;-73
2023/07/24 09:46:07;;;;;;;25.33;23.73;;;21.40;99.90;;;;;;5055991;28;20040;-74
2023/07/24 09:48:35;;;;;;;26.95;25.15;;;21.10;99.90;;;;;;5048454;28;20037;-73
2023/07/24 09:51:04;;;;;;;26.73;24.83;;;21.10;99.90;;;;;;5067072;28;20570;-74
2023/07/24 09:53:53;;;;;;;26.30;24.50;;;21.00;99.90;;;;;;5042955;28;20071;-74
2023/07/24 09:56:20;;;;;;;27.92;26.02;;;21.10;99.90;;;;;;5030019;28;20634;-73
2023/07/24 09:59:02;;;;;;;27.67;25.70;;;21.50;99.90;;;;;;5037955;28;20642;-75
2023/07/24 10:01:31;;;;;;;25.70;23.90;;;21.80;99.90;;;;;;5039368;28;20103;-73
2023/07/24 10:03:59;;;;;;;25.48;23.67;;;22.10;99.90;;;;;;5031076;28;20054;-73
2023/07/24 10:06:26;;;;;;;25.42;23.52;;;22.60;99.90;;;;;;5041071;28;20049;-73
2023/07/24 10:08:54;;;;;;;26.65;24.50;;;22.70;99.90;;;;;;5033395;28;20103;-72
2023/07/24 10:11:22;;;;;;;26.00;24.20;;;22.50;99.90;;;;;;5030720;28;21201;-73
2023/07/24 10:13:50;;;;;;;26.30;24.40;;;22.30;99.90;;;;;;5030240;28;20072;-75
2023/07/24 10:16:17;;;;;;;25.80;23.88;;;22.00;99.90;;;;;;5040827;28;20095;-74
2023/07/24 10:18:46;;;;;;;27.85;25.92;;;21.90;99.90;;;;;;5033554;28;20123;-75
2023/07/24 10:21:13;;;;;;;26.25;24.52;;;22.00;99.90;;;;;;5030957;28;20036;-74
2023/07/24 10:23:46;;;;;;;28.20;26.30;;;22.30;99.90;;;;;;5035732;28;20096;-74
2023/07/24 10:26:15;;;;;;;26.35;24.58;;;22.50;99.90;;;;;;5035665;28;20073;-74
2023/07/24 10:28:42;;;;;;;25.67;23.98;;;22.60;99.90;;;;;;5029516;28;20053;-74
2023/07/24 10:31:23;;;;;;;25.77;24.08;;;22.50;99.90;;;;;;5035189;28;20037;-75
2023/07/24 10:33:51;;;;;;;24.33;22.48;;;22.70;99.90;;;;;;5049028;28;20722;-76
2023/07/24 10:36:22;;;;;;;25.33;23.52;;;22.80;99.90;;;;;;5056636;28;20130;-75
2023/07/24 10:38:54;;;;;;;25.65;23.85;;;22.60;99.90;;;;;;5027887;28;20041;-75
2023/07/24 10:41:21;;;;;;;26.15;24.08;;;22.50;99.90;;;;;;5030827;28;20063;-74
2023/07/24 10:43:50;;;;;;;24.55;22.65;;;22.30;99.90;;;;;;5048278;28;20098;-74
2023/07/24 10:46:19;;;;;;;26.63;24.75;;;22.10;99.90;;;;;;5025644;28;20380;-73
2023/07/24 10:48:51;;;;;;;25.90;24.05;;;21.90;99.90;;;;;;5035876;28;20036;-73
2023/07/24 10:51:20;;;;;;;26.48;24.38;;;21.80;99.90;;;;;;5034085;28;20033;-74
2023/07/24 10:53:49;;;;;;;25.35;23.52;;;21.80;99.90;;;;;;5027708;28;20041;-73
2023/07/24 10:56:16;;;;;;;26.10;24.30;;;21.80;99.90;;;;;;5039968;28;20036;-74
2023/07/24 10:58:43;;;;;;;26.45;24.45;;;21.60;99.90;;;;;;5057577;28;20080;-73
2023/07/24 11:01:10;;;;;;;28.85;26.73;;;21.70;99.90;;;;;;5036791;28;20417;-74
2023/07/24 11:03:40;;;;;;;25.13;23.42;;;21.80;99.90;;;;;;5038228;28;20044;-73
2023/07/24 11:06:19;;;;;;;27.52;25.73;;;22.10;99.90;;;;;;5033011;28;20124;-74
2023/07/24 11:08:56;;;;;;;24.95;23.25;;;22.40;99.90;;;;;;5031079;28;20042;-74
2023/07/24 11:11:36;;;;;;;26.27;24.50;;;22.60;99.90;;;;;;5032011;28;20064;-72
2023/07/24 11:14:04;;;;;;;26.50;24.50;;;22.60;99.90;;;;;;5032320;28;21342;-73
2023/07/24 11:16:32;;;;;;;29.30;27.30;;;22.70;99.90;;;;;;5042131;28;20109;-73
2023/07/24 11:19:00;;;;;;;27.15;25.13;;;22.90;99.90;;;;;;5035282;28;20112;-73
2023/07/24 11:21:28;;;;;;;24.63;22.90;;;23.40;99.90;;;;;;5032033;28;20041;-74
2023/07/24 11:23:56;;;;;;;25.38;23.50;;;23.50;99.90;;;;;;5028435;28;20051;-73
2023/07/24 11:26:25;;;;;;;25.20;23.50;;;23.10;99.90;;;;;;5039669;28;20124;-75
2023/07/24 11:28:53;;;;;;;25.90;24.02;;;22.60;99.90;;;;;;5034510;28;20476;-74
2023/07/24 11:31:20;;;;;;;25.13;23.33;;;22.30;99.90;;;;;;5031498;28;20071;-74
2023/07/24 11:33:48;;;;;;;25.85;24.00;;;22.10;99.90;;;;;;5037295;28;20090;-74
2023/07/24 11:36:16;;;;;;;25.52;23.52;;;22.00;99.90;;;;;;5026371;28;20051;-74
2023/07/24 11:38:47;;;;;;;23.92;22.20;;;22.00;99.90;;;;;;5050080;28;20095;-73
2023/07/24 11:41:16;;;;;;;25.95;24.15;;;21.90;99.90;;;;;;5037599;28;20111;-74
2023/07/24 11:43:50;;;;;;;28.10;26.20;;;21.70;99.90;;;;;;5031983;28;20103;-73
2023/07/24 11:46:28;;;;;;;28.75;26.83;;;21.40;99.90;;;;;;5032942;28;20082;-73
2023/07/24 11:48:56;;;;;;;28.33;26.45;;;21.00;99.90;;;;;;5046127;28;20040;-73
2023/07/24 11:51:26;;;;;;;28.25;26.40;;;20.70;99.90;;;;;;5034971;28;20042;-72
2023/07/24 11:54:08;;;;;;;27.13;25.23;;;20.50;99.90;;;;;;5036844;28;20127;-72
2023/07/24 11:56:35;;;;;;;25.55;23.75;;;20.40;99.90;;;;;;5034186;28;20736;-72
2023/07/24 11:59:15;;;;;;;26.75;24.95;;;20.40;99.90;;;;;;5047948;28;20043;-72
2023/07/24 12:01:48;;;;;;;25.10;23.52;;;20.40;99.90;;;;;;5047033;28;20052;-72
2023/07/24 12:04:16;;;;;;;26.48;24.70;;;20.50;99.90;;;;;;5038721;28;20044;-71
2023/07/24 12:06:43;;;;;;;27.63;25.73;;;20.70;99.90;;;;;;5026874;28;20500;-72
2023/07/24 12:09:11;;;;;;;27.35;25.45;;;21.00;99.90;;;;;;5017716;28;20041;-74
2023/07/24 12:11:43;;;;;;;26.40;24.75;;;21.30;99.90;;;;;;5036568;28;20804;-74
2023/07/24 12:14:14;;;;;;;22.98;21.40;;;21.70;99.90;;;;;;5036916;28;20073;-75
2023/07/24 12:16:41;;;;;;;24.50;22.90;;;22.10;99.90;;;;;;5031395;28;20041;-72
2023/07/24 12:19:07;;;;;;;25.08;22.88;;;22.20;99.90;;;;;;5035319;28;20955;-73
2023/07/24 12:21:34;;;;;;;24.83;22.92;;;22.30;99.90;;;;;;5042135;28;20043;-73
2023/07/24 12:24:01;;;;;;;26.42;24.73;;;22.30;99.90;;;;;;5028578;28;20037;-74
2023/07/24 12:26:28;;;;;;;25.15;23.55;;;22.20;99.90;;;;;;5033648;28;20040;-73
2023/07/24 12:28:54;;;;;;;25.48;23.60;;;22.40;99.90;;;;;;5034083;28;20092;-74
2023/07/24 12:31:21;;;;;;;26.67;24.77;;;22.30;99.90;;;;;;5033097;28;20548;-73
2023/07/24 12:33:48;;;;;;;25.25;23.58;;;22.30;99.90;;;;;;5014791;28;20110;-74
2023/07/24 12:36:15;;;;;;;25.67;23.88;;;22.40;99.90;;;;;;5026657;28;20049;-73
2023/07/24 12:38:42;;;;;;;25.85;24.00;;;22.30;99.90;;;;;;5020929;28;20114;-74